sensor_id;sensor_type;location;lat;lon;timestamp;temperature;humidity
17385;DHT22;8810;48.680;8.894;2023-03-14T00:01:54;8.80;99.90
17385;DHT22;8810;48.680;8.894;2023-03-14T00:04:21;8.80;99.90
17385;DHT22;8810;48.680;8.894;2023-03-14T00:06:48;8.80;99.90
17385;DHT22;8810;48.680;8.894;2023-03-14T00:09:16;8.80;99.90
17385;DHT22;8810;48.680;8.894;2023-03-14T00:11:44;8.80;99.90
17385;DHT22;8810;48.680;8.894;2023-03-14T00:14:11;8.80;99.90
17385;DHT22;8810;48.680;8.894;2023-03-14T00:16:38;8.80;99.90
17385;DHT22;8810;48.680;8.894;2023-03-14T00:19:05;8.80;99.90
17385;DHT22;8810;48.680;8.894;2023-03-14T00:21:32;8.80;99.90
17385;DHT22;8810;48.680;8.894;2023-03-14T00:23:58;8.80;99.90
17385;DHT22;8810;48.680;8.894;2023-03-14T00:26:27;8.80;99.90
17385;DHT22;8810;48.680;8.894;2023-03-14T00:28:54;8.80;99.90
17385;DHT22;8810;48.680;8.894;2023-03-14T00:31:21;8.80;99.90
17385;DHT22;8810;48.680;8.894;2023-03-14T00:33:48;8.80;99.90
17385;DHT22;8810;48.680;8.894;2023-03-14T00:36:16;8.80;99.90
17385;DHT22;8810;48.680;8.894;2023-03-14T00:38:45;8.80;99.90
17385;DHT22;8810;48.680;8.894;2023-03-14T00:41:14;8.80;99.90
17385;DHT22;8810;48.680;8.894;2023-03-14T00:43:42;8.80;99.90
17385;DHT22;8810;48.680;8.894;2023-03-14T00:46:09;8.80;99.90
17385;DHT22;8810;48.680;8.894;2023-03-14T00:48:36;8.80;99.90
17385;DHT22;8810;48.680;8.894;2023-03-14T00:51:03;8.80;99.90
17385;DHT22;8810;48.680;8.894;2023-03-14T00:53:31;8.80;99.90
17385;DHT22;8810;48.680;8.894;2023-03-14T00:56:02;8.80;99.90
17385;DHT22;8810;48.680;8.894;2023-03-14T00:58:29;8.80;99.90
17385;DHT22;8810;48.680;8.894;2023-03-14T01:00:57;8.90;99.90
17385;DHT22;8810;48.680;8.894;2023-03-14T01:03:24;8.90;99.90
17385;DHT22;8810;48.680;8.894;2023-03-14T01:05:50;8.90;99.90
17385;DHT22;8810;48.680;8.894;2023-03-14T01:08:17;8.90;99.90
17385;DHT22;8810;48.680;8.894;2023-03-14T01:10:44;8.90;99.90
17385;DHT22;8810;48.680;8.894;2023-03-14T01:13:11;8.90;99.90
17385;DHT22;8810;48.680;8.894;2023-03-14T01:15:37;9.00;99.90
17385;DHT22;8810;48.680;8.894;2023-03-14T01:18:06;8.90;99.90
17385;DHT22;8810;48.680;8.894;2023-03-14T01:20:32;9.00;99.90
17385;DHT22;8810;48.680;8.894;2023-03-14T01:22:59;9.00;99.90
17385;DHT22;8810;48.680;8.894;2023-03-14T01:25:26;9.00;99.90
17385;DHT22;8810;48.680;8.894;2023-03-14T01:27:53;9.00;99.90
17385;DHT22;8810;48.680;8.894;2023-03-14T01:30:19;9.00;99.90
17385;DHT22;8810;48.680;8.894;2023-03-14T01:32:46;9.00;99.90
17385;DHT22;8810;48.680;8.894;2023-03-14T01:35:14;9.00;99.90
17385;DHT22;8810;48.680;8.894;2023-03-14T01:37:41;9.00;99.90
17385;DHT22;8810;48.680;8.894;2023-03-14T01:40:10;9.00;99.90
17385;DHT22;8810;48.680;8.894;2023-03-14T01:42:44;9.00;99.90
17385;DHT22;8810;48.680;8.894;2023-03-14T01:48:11;9.00;99.90
17385;DHT22;8810;48.680;8.894;2023-03-14T01:50:39;9.00;99.90
17385;DHT22;8810;48.680;8.894;2023-03-14T01:53:06;8.90;99.90
17385;DHT22;8810;48.680;8.894;2023-03-14T01:55:33;8.90;99.90
17385;DHT22;8810;48.680;8.894;2023-03-14T01:58:03;8.90;99.90
17385;DHT22;8810;48.680;8.894;2023-03-14T02:00:31;8.90;99.90
17385;DHT22;8810;48.680;8.894;2023-03-14T02:03:02;8.80;99.90
17385;DHT22;8810;48.680;8.894;2023-03-14T02:05:34;8.80;99.90
17385;DHT22;8810;48.680;8.894;2023-03-14T02:08:05;8.80;99.90
17385;DHT22;8810;48.680;8.894;2023-03-14T02:10:37;8.80;99.90
17385;DHT22;8810;48.680;8.894;2023-03-14T02:13:05;8.80;99.90
17385;DHT22;8810;48.680;8.894;2023-03-14T02:15:33;8.80;99.90
17385;DHT22;8810;48.680;8.894;2023-03-14T02:18:02;8.80;99.90
17385;DHT22;8810;48.680;8.894;2023-03-14T02:20:34;8.80;99.90
17385;DHT22;8810;48.680;8.894;2023-03-14T02:23:04;8.80;99.90
17385;DHT22;8810;48.680;8.894;2023-03-14T02:25:39;8.80;99.90
17385;DHT22;8810;48.680;8.894;2023-03-14T02:28:10;8.80;99.90
17385;DHT22;8810;48.680;8.894;2023-03-14T02:30:37;8.70;99.90
17385;DHT22;8810;48.680;8.894;2023-03-14T02:33:07;8.70;99.90
17385;DHT22;8810;48.680;8.894;2023-03-14T02:35:37;8.70;99.90
17385;DHT22;8810;48.680;8.894;2023-03-14T02:38:11;8.70;99.90
17385;DHT22;8810;48.680;8.894;2023-03-14T02:40:41;8.70;99.90
17385;DHT22;8810;48.680;8.894;2023-03-14T02:43:09;8.70;99.90
17385;DHT22;8810;48.680;8.894;2023-03-14T02:45:42;8.70;99.90
17385;DHT22;8810;48.680;8.894;2023-03-14T02:48:14;8.70;99.90
17385;DHT22;8810;48.680;8.894;2023-03-14T02:50:42;8.70;99.90
17385;DHT22;8810;48.680;8.894;2023-03-14T02:53:12;8.70;99.90
17385;DHT22;8810;48.680;8.894;2023-03-14T02:55:40;8.70;99.90
17385;DHT22;8810;48.680;8.894;2023-03-14T02:58:12;8.60;99.90
17385;DHT22;8810;48.680;8.894;2023-03-14T03:00:38;8.60;99.90
17385;DHT22;8810;48.680;8.894;2023-03-14T03:03:05;8.60;99.90
17385;DHT22;8810;48.680;8.894;2023-03-14T03:05:32;8.60;99.90
17385;DHT22;8810;48.680;8.894;2023-03-14T03:07:59;8.60;99.90
17385;DHT22;8810;48.680;8.894;2023-03-14T03:10:26;8.60;99.90
17385;DHT22;8810;48.680;8.894;2023-03-14T03:12:53;8.50;99.90
17385;DHT22;8810;48.680;8.894;2023-03-14T03:15:22;8.50;99.90
17385;DHT22;8810;48.680;8.894;2023-03-14T03:17:49;8.50;99.90
17385;DHT22;8810;48.680;8.894;2023-03-14T03:20:16;8.50;99.90
17385;DHT22;8810;48.680;8.894;2023-03-14T03:22:43;8.50;99.90
17385;DHT22;8810;48.680;8.894;2023-03-14T03:25:10;8.50;99.90
17385;DHT22;8810;48.680;8.894;2023-03-14T03:27:37;8.50;99.90
17385;DHT22;8810;48.680;8.894;2023-03-14T03:30:05;8.50;99.90
17385;DHT22;8810;48.680;8.894;2023-03-14T03:32:33;8.40;99.90
17385;DHT22;8810;48.680;8.894;2023-03-14T03:35:01;8.40;99.90
17385;DHT22;8810;48.680;8.894;2023-03-14T03:37:30;8.40;99.90
17385;DHT22;8810;48.680;8.894;2023-03-14T03:39:56;8.30;99.90
17385;DHT22;8810;48.680;8.894;2023-03-14T03:42:23;8.30;99.90
17385;DHT22;8810;48.680;8.894;2023-03-14T03:44:50;8.30;99.90
17385;DHT22;8810;48.680;8.894;2023-03-14T03:47:17;8.20;99.90
17385;DHT22;8810;48.680;8.894;2023-03-14T03:49:45;8.20;99.90
17385;DHT22;8810;48.680;8.894;2023-03-14T03:52:11;8.20;99.90
17385;DHT22;8810;48.680;8.894;2023-03-14T03:54:38;8.20;99.90
17385;DHT22;8810;48.680;8.894;2023-03-14T03:57:05;8.20;99.90
17385;DHT22;8810;48.680;8.894;2023-03-14T03:59:32;8.20;99.90
17385;DHT22;8810;48.680;8.894;2023-03-14T04:01:58;8.20;99.90
17385;DHT22;8810;48.680;8.894;2023-03-14T04:04:25;8.10;99.90
17385;DHT22;8810;48.680;8.894;2023-03-14T04:06:53;8.10;99.90
17385;DHT22;8810;48.680;8.894;2023-03-14T04:09:20;8.20;99.90
17385;DHT22;8810;48.680;8.894;2023-03-14T04:11:47;8.10;99.90
17385;DHT22;8810;48.680;8.894;2023-03-14T04:14:14;8.10;99.90
17385;DHT22;8810;48.680;8.894;2023-03-14T04:16:41;8.10;99.90
17385;DHT22;8810;48.680;8.894;2023-03-14T04:19:07;8.10;99.90
17385;DHT22;8810;48.680;8.894;2023-03-14T04:21:34;8.10;99.90
17385;DHT22;8810;48.680;8.894;2023-03-14T04:24:03;8.10;99.90
17385;DHT22;8810;48.680;8.894;2023-03-14T04:26:30;8.10;99.90
17385;DHT22;8810;48.680;8.894;2023-03-14T04:28:57;8.10;99.90
17385;DHT22;8810;48.680;8.894;2023-03-14T04:31:24;8.10;99.90
17385;DHT22;8810;48.680;8.894;2023-03-14T04:33:51;8.20;99.90
17385;DHT22;8810;48.680;8.894;2023-03-14T04:36:18;8.20;99.90
17385;DHT22;8810;48.680;8.894;2023-03-14T04:38:44;8.20;99.90
17385;DHT22;8810;48.680;8.894;2023-03-14T04:41:13;8.20;99.90
17385;DHT22;8810;48.680;8.894;2023-03-14T04:43:39;8.20;99.90
17385;DHT22;8810;48.680;8.894;2023-03-14T04:46:06;8.20;99.90
17385;DHT22;8810;48.680;8.894;2023-03-14T04:48:33;8.10;99.90
17385;DHT22;8810;48.680;8.894;2023-03-14T04:51:00;8.20;99.90
17385;DHT22;8810;48.680;8.894;2023-03-14T04:53:27;8.10;99.90
17385;DHT22;8810;48.680;8.894;2023-03-14T04:55:55;8.10;99.90
17385;DHT22;8810;48.680;8.894;2023-03-14T04:58:24;8.20;99.90
17385;DHT22;8810;48.680;8.894;2023-03-14T05:00:51;8.10;99.90
17385;DHT22;8810;48.680;8.894;2023-03-14T05:03:18;8.10;99.90
17385;DHT22;8810;48.680;8.894;2023-03-14T05:05:46;8.10;99.90
17385;DHT22;8810;48.680;8.894;2023-03-14T05:08:13;8.10;99.90
17385;DHT22;8810;48.680;8.894;2023-03-14T05:10:40;8.20;99.90
17385;DHT22;8810;48.680;8.894;2023-03-14T05:13:07;8.20;99.90
17385;DHT22;8810;48.680;8.894;2023-03-14T05:15:35;8.20;99.90
17385;DHT22;8810;48.680;8.894;2023-03-14T05:18:02;8.20;99.90
17385;DHT22;8810;48.680;8.894;2023-03-14T05:20:29;8.20;99.90
17385;DHT22;8810;48.680;8.894;2023-03-14T05:22:57;8.30;99.90
17385;DHT22;8810;48.680;8.894;2023-03-14T05:25:23;8.30;99.90
17385;DHT22;8810;48.680;8.894;2023-03-14T05:27:53;8.30;99.90
17385;DHT22;8810;48.680;8.894;2023-03-14T05:30:20;8.40;99.90
17385;DHT22;8810;48.680;8.894;2023-03-14T05:32:49;8.30;99.90
17385;DHT22;8810;48.680;8.894;2023-03-14T05:35:16;8.30;99.90
17385;DHT22;8810;48.680;8.894;2023-03-14T05:37:43;8.40;99.90
17385;DHT22;8810;48.680;8.894;2023-03-14T05:40:11;8.40;99.90
17385;DHT22;8810;48.680;8.894;2023-03-14T05:42:37;8.40;99.90
17385;DHT22;8810;48.680;8.894;2023-03-14T05:45:05;8.30;99.90
17385;DHT22;8810;48.680;8.894;2023-03-14T05:47:32;8.30;99.90
17385;DHT22;8810;48.680;8.894;2023-03-14T05:50:01;8.30;99.90
17385;DHT22;8810;48.680;8.894;2023-03-14T05:52:27;8.20;99.90
17385;DHT22;8810;48.680;8.894;2023-03-14T05:54:54;8.20;99.90
17385;DHT22;8810;48.680;8.894;2023-03-14T05:57:21;8.20;99.90
17385;DHT22;8810;48.680;8.894;2023-03-14T05:59:48;8.10;99.90
17385;DHT22;8810;48.680;8.894;2023-03-14T06:02:15;8.10;99.90
17385;DHT22;8810;48.680;8.894;2023-03-14T06:04:42;8.10;99.90
17385;DHT22;8810;48.680;8.894;2023-03-14T06:07:10;8.10;99.90
17385;DHT22;8810;48.680;8.894;2023-03-14T06:09:37;8.10;99.90
17385;DHT22;8810;48.680;8.894;2023-03-14T06:12:05;8.20;99.90
17385;DHT22;8810;48.680;8.894;2023-03-14T06:14:32;8.20;99.90
17385;DHT22;8810;48.680;8.894;2023-03-14T06:16:59;8.10;99.90
17385;DHT22;8810;48.680;8.894;2023-03-14T06:19:26;8.10;99.90
17385;DHT22;8810;48.680;8.894;2023-03-14T06:21:53;8.10;99.90
17385;DHT22;8810;48.680;8.894;2023-03-14T06:24:21;8.10;99.90
17385;DHT22;8810;48.680;8.894;2023-03-14T06:26:48;8.10;99.90
17385;DHT22;8810;48.680;8.894;2023-03-14T06:29:15;8.10;99.90
17385;DHT22;8810;48.680;8.894;2023-03-14T06:31:42;8.20;99.90
17385;DHT22;8810;48.680;8.894;2023-03-14T06:34:08;8.20;99.90
17385;DHT22;8810;48.680;8.894;2023-03-14T06:36:35;8.30;99.90
17385;DHT22;8810;48.680;8.894;2023-03-14T06:39:02;8.30;99.90
17385;DHT22;8810;48.680;8.894;2023-03-14T06:41:31;8.30;99.90
17385;DHT22;8810;48.680;8.894;2023-03-14T06:43:58;8.40;99.90
17385;DHT22;8810;48.680;8.894;2023-03-14T06:46:25;8.50;99.90
17385;DHT22;8810;48.680;8.894;2023-03-14T06:48:52;8.60;99.90
17385;DHT22;8810;48.680;8.894;2023-03-14T06:51:19;8.60;99.90
17385;DHT22;8810;48.680;8.894;2023-03-14T06:53:46;8.60;99.90
17385;DHT22;8810;48.680;8.894;2023-03-14T06:56:12;8.60;99.90
17385;DHT22;8810;48.680;8.894;2023-03-14T06:58:41;8.60;99.90
17385;DHT22;8810;48.680;8.894;2023-03-14T07:01:19;8.70;99.90
17385;DHT22;8810;48.680;8.894;2023-03-14T07:03:47;8.90;99.90
17385;DHT22;8810;48.680;8.894;2023-03-14T07:06:14;9.10;99.90
17385;DHT22;8810;48.680;8.894;2023-03-14T07:08:41;9.20;99.90
17385;DHT22;8810;48.680;8.894;2023-03-14T07:11:09;9.10;99.90
17385;DHT22;8810;48.680;8.894;2023-03-14T07:13:36;9.20;99.90
17385;DHT22;8810;48.680;8.894;2023-03-14T07:16:06;9.30;99.90
17385;DHT22;8810;48.680;8.894;2023-03-14T07:18:34;9.30;99.90
17385;DHT22;8810;48.680;8.894;2023-03-14T07:21:03;9.50;99.90
17385;DHT22;8810;48.680;8.894;2023-03-14T07:23:29;9.60;99.90
17385;DHT22;8810;48.680;8.894;2023-03-14T07:25:56;9.70;99.90
17385;DHT22;8810;48.680;8.894;2023-03-14T07:28:23;10.00;99.90
17385;DHT22;8810;48.680;8.894;2023-03-14T07:30:50;10.20;99.90
17385;DHT22;8810;48.680;8.894;2023-03-14T07:33:19;10.40;99.90
17385;DHT22;8810;48.680;8.894;2023-03-14T07:35:47;10.50;99.90
17385;DHT22;8810;48.680;8.894;2023-03-14T07:38:14;10.60;99.90
17385;DHT22;8810;48.680;8.894;2023-03-14T07:40:40;10.60;99.90
17385;DHT22;8810;48.680;8.894;2023-03-14T07:43:07;10.70;99.90
17385;DHT22;8810;48.680;8.894;2023-03-14T07:45:34;10.80;99.90
17385;DHT22;8810;48.680;8.894;2023-03-14T07:48:01;10.80;99.90
17385;DHT22;8810;48.680;8.894;2023-03-14T07:50:30;11.00;99.90
17385;DHT22;8810;48.680;8.894;2023-03-14T07:52:56;11.10;99.90
17385;DHT22;8810;48.680;8.894;2023-03-14T07:55:23;11.00;99.90
17385;DHT22;8810;48.680;8.894;2023-03-14T07:57:50;10.90;99.90
17385;DHT22;8810;48.680;8.894;2023-03-14T08:00:18;10.80;99.90
17385;DHT22;8810;48.680;8.894;2023-03-14T08:02:45;10.90;99.90
17385;DHT22;8810;48.680;8.894;2023-03-14T08:05:12;10.90;99.90
17385;DHT22;8810;48.680;8.894;2023-03-14T08:07:40;11.10;99.90
17385;DHT22;8810;48.680;8.894;2023-03-14T08:10:08;11.10;99.90
17385;DHT22;8810;48.680;8.894;2023-03-14T08:12:35;11.10;99.90
17385;DHT22;8810;48.680;8.894;2023-03-14T08:15:02;11.00;99.90
17385;DHT22;8810;48.680;8.894;2023-03-14T08:17:29;11.20;99.90
17385;DHT22;8810;48.680;8.894;2023-03-14T08:19:56;11.40;99.90
17385;DHT22;8810;48.680;8.894;2023-03-14T08:22:23;11.20;99.90
17385;DHT22;8810;48.680;8.894;2023-03-14T08:24:51;11.10;99.90
17385;DHT22;8810;48.680;8.894;2023-03-14T08:27:18;10.90;99.90
17385;DHT22;8810;48.680;8.894;2023-03-14T08:29:45;10.80;99.90
17385;DHT22;8810;48.680;8.894;2023-03-14T08:32:12;10.80;99.90
17385;DHT22;8810;48.680;8.894;2023-03-14T08:34:39;10.80;99.90
17385;DHT22;8810;48.680;8.894;2023-03-14T08:37:06;11.00;99.90
17385;DHT22;8810;48.680;8.894;2023-03-14T08:39:33;11.10;99.90
17385;DHT22;8810;48.680;8.894;2023-03-14T08:42:01;11.20;99.90
17385;DHT22;8810;48.680;8.894;2023-03-14T08:44:29;11.10;99.90
17385;DHT22;8810;48.680;8.894;2023-03-14T08:46:55;11.10;99.90
17385;DHT22;8810;48.680;8.894;2023-03-14T08:49:22;11.00;99.90
17385;DHT22;8810;48.680;8.894;2023-03-14T08:51:49;10.80;99.90
17385;DHT22;8810;48.680;8.894;2023-03-14T08:54:16;10.70;99.90
17385;DHT22;8810;48.680;8.894;2023-03-14T08:56:44;10.70;99.90
17385;DHT22;8810;48.680;8.894;2023-03-14T08:59:12;10.60;99.90
17385;DHT22;8810;48.680;8.894;2023-03-14T09:01:39;10.50;99.90
17385;DHT22;8810;48.680;8.894;2023-03-14T09:04:06;10.40;99.90
17385;DHT22;8810;48.680;8.894;2023-03-14T09:06:33;10.20;99.90
17385;DHT22;8810;48.680;8.894;2023-03-14T09:09:01;10.20;99.90
17385;DHT22;8810;48.680;8.894;2023-03-14T09:11:28;10.20;99.90
17385;DHT22;8810;48.680;8.894;2023-03-14T09:13:54;10.10;99.90
17385;DHT22;8810;48.680;8.894;2023-03-14T09:16:23;10.10;99.90
17385;DHT22;8810;48.680;8.894;2023-03-14T09:18:50;10.00;99.90
17385;DHT22;8810;48.680;8.894;2023-03-14T09:21:19;10.10;99.90
17385;DHT22;8810;48.680;8.894;2023-03-14T09:23:46;10.10;99.90
17385;DHT22;8810;48.680;8.894;2023-03-14T09:26:14;10.10;99.90
17385;DHT22;8810;48.680;8.894;2023-03-14T09:28:41;10.10;99.90
17385;DHT22;8810;48.680;8.894;2023-03-14T09:31:09;10.20;99.90
17385;DHT22;8810;48.680;8.894;2023-03-14T09:33:38;10.20;99.90
17385;DHT22;8810;48.680;8.894;2023-03-14T09:36:06;10.30;99.90
17385;DHT22;8810;48.680;8.894;2023-03-14T09:38:34;10.30;99.90
17385;DHT22;8810;48.680;8.894;2023-03-14T09:41:02;10.40;99.90
17385;DHT22;8810;48.680;8.894;2023-03-14T09:43:31;10.50;99.90
17385;DHT22;8810;48.680;8.894;2023-03-14T09:46:01;10.60;99.90
17385;DHT22;8810;48.680;8.894;2023-03-14T09:48:32;10.70;99.90
17385;DHT22;8810;48.680;8.894;2023-03-14T09:51:03;10.80;99.90
17385;DHT22;8810;48.680;8.894;2023-03-14T09:53:37;11.10;99.90
17385;DHT22;8810;48.680;8.894;2023-03-14T09:56:11;11.30;99.90
17385;DHT22;8810;48.680;8.894;2023-03-14T09:58:41;11.40;99.90
17385;DHT22;8810;48.680;8.894;2023-03-14T10:01:11;11.60;99.90
17385;DHT22;8810;48.680;8.894;2023-03-14T10:03:42;12.00;99.90
17385;DHT22;8810;48.680;8.894;2023-03-14T10:06:13;12.50;99.90
17385;DHT22;8810;48.680;8.894;2023-03-14T10:08:41;12.30;99.90
17385;DHT22;8810;48.680;8.894;2023-03-14T10:11:14;11.90;99.90
17385;DHT22;8810;48.680;8.894;2023-03-14T10:13:49;11.70;99.90
17385;DHT22;8810;48.680;8.894;2023-03-14T10:16:16;11.70;99.90
17385;DHT22;8810;48.680;8.894;2023-03-14T10:18:45;11.60;99.90
17385;DHT22;8810;48.680;8.894;2023-03-14T10:21:21;11.50;99.90
17385;DHT22;8810;48.680;8.894;2023-03-14T10:23:52;11.40;99.90
17385;DHT22;8810;48.680;8.894;2023-03-14T10:26:24;11.40;99.90
17385;DHT22;8810;48.680;8.894;2023-03-14T10:31:24;11.30;99.90
17385;DHT22;8810;48.680;8.894;2023-03-14T10:33:59;11.20;99.90
17385;DHT22;8810;48.680;8.894;2023-03-14T10:36:29;11.20;99.90
17385;DHT22;8810;48.680;8.894;2023-03-14T10:38:58;11.10;99.90
17385;DHT22;8810;48.680;8.894;2023-03-14T10:41:32;11.10;99.90
17385;DHT22;8810;48.680;8.894;2023-03-14T10:44:00;11.00;99.90
17385;DHT22;8810;48.680;8.894;2023-03-14T10:46:31;10.90;99.90
17385;DHT22;8810;48.680;8.894;2023-03-14T10:49:04;10.80;99.90
17385;DHT22;8810;48.680;8.894;2023-03-14T10:51:32;10.70;99.90
17385;DHT22;8810;48.680;8.894;2023-03-14T10:54:01;10.70;99.90
17385;DHT22;8810;48.680;8.894;2023-03-14T10:56:34;10.70;99.90
17385;DHT22;8810;48.680;8.894;2023-03-14T10:59:02;10.70;99.90
17385;DHT22;8810;48.680;8.894;2023-03-14T11:01:38;10.70;99.90
17385;DHT22;8810;48.680;8.894;2023-03-14T11:04:15;10.70;99.90
17385;DHT22;8810;48.680;8.894;2023-03-14T11:06:52;10.70;99.90
17385;DHT22;8810;48.680;8.894;2023-03-14T11:09:27;10.70;99.90
17385;DHT22;8810;48.680;8.894;2023-03-14T11:12:02;10.60;99.90
17385;DHT22;8810;48.680;8.894;2023-03-14T11:14:38;10.70;99.90
17385;DHT22;8810;48.680;8.894;2023-03-14T11:17:10;10.60;99.90
17385;DHT22;8810;48.680;8.894;2023-03-14T11:20:01;10.50;99.90
17385;DHT22;8810;48.680;8.894;2023-03-14T11:22:37;10.30;99.90
17385;DHT22;8810;48.680;8.894;2023-03-14T11:25:15;10.10;99.90
17385;DHT22;8810;48.680;8.894;2023-03-14T11:27:54;10.00;99.90
17385;DHT22;8810;48.680;8.894;2023-03-14T11:30:27;10.00;99.90
17385;DHT22;8810;48.680;8.894;2023-03-14T11:33:02;10.00;99.90
17385;DHT22;8810;48.680;8.894;2023-03-14T11:35:33;10.00;99.90
17385;DHT22;8810;48.680;8.894;2023-03-14T11:38:10;10.10;99.90
17385;DHT22;8810;48.680;8.894;2023-03-14T11:40:38;10.10;99.90
17385;DHT22;8810;48.680;8.894;2023-03-14T11:43:11;10.10;99.90
17385;DHT22;8810;48.680;8.894;2023-03-14T11:45:41;10.10;99.90
17385;DHT22;8810;48.680;8.894;2023-03-14T11:48:20;10.10;99.90
17385;DHT22;8810;48.680;8.894;2023-03-14T11:50:52;10.10;99.90
17385;DHT22;8810;48.680;8.894;2023-03-14T11:53:35;10.00;99.90
17385;DHT22;8810;48.680;8.894;2023-03-14T11:56:13;9.90;99.90
17385;DHT22;8810;48.680;8.894;2023-03-14T11:58:47;9.80;99.90
17385;DHT22;8810;48.680;8.894;2023-03-14T12:01:17;9.80;99.90
17385;DHT22;8810;48.680;8.894;2023-03-14T12:03:54;9.70;99.90
17385;DHT22;8810;48.680;8.894;2023-03-14T12:06:25;9.70;99.90
17385;DHT22;8810;48.680;8.894;2023-03-14T12:08:54;9.70;99.90
17385;DHT22;8810;48.680;8.894;2023-03-14T12:11:33;9.70;99.90
17385;DHT22;8810;48.680;8.894;2023-03-14T12:14:01;9.80;99.90
17385;DHT22;8810;48.680;8.894;2023-03-14T12:16:37;10.00;99.90
17385;DHT22;8810;48.680;8.894;2023-03-14T12:22:13;10.20;99.90
17385;DHT22;8810;48.680;8.894;2023-03-14T12:24:49;10.40;99.90
17385;DHT22;8810;48.680;8.894;2023-03-14T12:27:40;10.70;99.90
17385;DHT22;8810;48.680;8.894;2023-03-14T12:30:23;11.10;99.90
17385;DHT22;8810;48.680;8.894;2023-03-14T12:33:19;11.10;99.90
17385;DHT22;8810;48.680;8.894;2023-03-14T12:35:47;11.10;99.90
17385;DHT22;8810;48.680;8.894;2023-03-14T12:38:17;11.10;99.90
17385;DHT22;8810;48.680;8.894;2023-03-14T12:40:56;11.10;99.90
17385;DHT22;8810;48.680;8.894;2023-03-14T12:43:27;11.00;99.90
17385;DHT22;8810;48.680;8.894;2023-03-14T12:46:19;10.80;99.90
17385;DHT22;8810;48.680;8.894;2023-03-14T12:48:48;10.50;99.90
17385;DHT22;8810;48.680;8.894;2023-03-14T12:51:17;10.50;99.90
17385;DHT22;8810;48.680;8.894;2023-03-14T12:54:06;10.50;99.90
17385;DHT22;8810;48.680;8.894;2023-03-14T12:56:59;10.40;99.90
17385;DHT22;8810;48.680;8.894;2023-03-14T12:59:33;10.10;99.90
17385;DHT22;8810;48.680;8.894;2023-03-14T13:02:17;10.00;99.90
17385;DHT22;8810;48.680;8.894;2023-03-14T13:04:47;10.00;99.90
17385;DHT22;8810;48.680;8.894;2023-03-14T13:07:31;10.00;99.90
17385;DHT22;8810;48.680;8.894;2023-03-14T13:10:05;10.20;99.90
17385;DHT22;8810;48.680;8.894;2023-03-14T13:12:38;10.10;99.90
17385;DHT22;8810;48.680;8.894;2023-03-14T13:15:17;10.00;99.90
17385;DHT22;8810;48.680;8.894;2023-03-14T13:17:46;9.80;99.90
17385;DHT22;8810;48.680;8.894;2023-03-14T13:20:18;9.50;99.90
17385;DHT22;8810;48.680;8.894;2023-03-14T13:22:48;9.50;99.90
17385;DHT22;8810;48.680;8.894;2023-03-14T13:25:15;9.20;99.90
17385;DHT22;8810;48.680;8.894;2023-03-14T13:27:45;9.10;99.90
17385;DHT22;8810;48.680;8.894;2023-03-14T13:30:18;9.00;99.90
17385;DHT22;8810;48.680;8.894;2023-03-14T13:32:47;9.00;99.90
17385;DHT22;8810;48.680;8.894;2023-03-14T13:35:16;8.80;99.90
17385;DHT22;8810;48.680;8.894;2023-03-14T13:37:43;8.80;99.90
17385;DHT22;8810;48.680;8.894;2023-03-14T13:40:20;8.70;99.90
17385;DHT22;8810;48.680;8.894;2023-03-14T13:42:49;8.60;99.90
17385;DHT22;8810;48.680;8.894;2023-03-14T13:45:16;8.50;99.90
17385;DHT22;8810;48.680;8.894;2023-03-14T13:47:43;8.60;99.90
17385;DHT22;8810;48.680;8.894;2023-03-14T13:50:15;8.70;99.90
17385;DHT22;8810;48.680;8.894;2023-03-14T13:52:43;8.70;99.90
17385;DHT22;8810;48.680;8.894;2023-03-14T13:55:15;8.80;99.90
17385;DHT22;8810;48.680;8.894;2023-03-14T13:57:43;8.70;99.90
17385;DHT22;8810;48.680;8.894;2023-03-14T14:00:19;8.80;99.90
17385;DHT22;8810;48.680;8.894;2023-03-14T14:02:46;8.80;99.90
17385;DHT22;8810;48.680;8.894;2023-03-14T14:05:14;9.00;99.90
17385;DHT22;8810;48.680;8.894;2023-03-14T14:07:43;9.20;99.90
17385;DHT22;8810;48.680;8.894;2023-03-14T14:10:11;9.30;99.90
17385;DHT22;8810;48.680;8.894;2023-03-14T14:12:42;9.20;99.90
17385;DHT22;8810;48.680;8.894;2023-03-14T14:15:19;9.10;99.90
17385;DHT22;8810;48.680;8.894;2023-03-14T14:17:49;9.00;99.90
17385;DHT22;8810;48.680;8.894;2023-03-14T14:20:21;9.10;99.90
17385;DHT22;8810;48.680;8.894;2023-03-14T14:22:49;9.10;99.90
17385;DHT22;8810;48.680;8.894;2023-03-14T14:25:16;9.00;99.90
17385;DHT22;8810;48.680;8.894;2023-03-14T14:27:46;8.90;99.90
17385;DHT22;8810;48.680;8.894;2023-03-14T14:30:39;8.90;99.90
17385;DHT22;8810;48.680;8.894;2023-03-14T14:33:18;8.70;99.90
17385;DHT22;8810;48.680;8.894;2023-03-14T14:35:52;8.60;99.90
17385;DHT22;8810;48.680;8.894;2023-03-14T14:38:20;8.50;99.90
17385;DHT22;8810;48.680;8.894;2023-03-14T14:40:49;8.50;99.90
17385;DHT22;8810;48.680;8.894;2023-03-14T14:43:20;8.50;99.90
17385;DHT22;8810;48.680;8.894;2023-03-14T14:45:50;8.50;99.90
17385;DHT22;8810;48.680;8.894;2023-03-14T14:48:20;8.40;99.90
17385;DHT22;8810;48.680;8.894;2023-03-14T14:50:56;8.50;99.90
17385;DHT22;8810;48.680;8.894;2023-03-14T14:53:28;8.50;99.90
17385;DHT22;8810;48.680;8.894;2023-03-14T14:55:57;8.40;99.90
17385;DHT22;8810;48.680;8.894;2023-03-14T14:58:26;8.50;99.90
17385;DHT22;8810;48.680;8.894;2023-03-14T15:00:57;8.50;99.90
17385;DHT22;8810;48.680;8.894;2023-03-14T15:03:27;8.50;99.90
17385;DHT22;8810;48.680;8.894;2023-03-14T15:05:55;8.40;99.90
17385;DHT22;8810;48.680;8.894;2023-03-14T15:08:22;8.40;99.90
17385;DHT22;8810;48.680;8.894;2023-03-14T15:10:50;8.40;99.90
17385;DHT22;8810;48.680;8.894;2023-03-14T15:13:17;8.40;99.90
17385;DHT22;8810;48.680;8.894;2023-03-14T15:15:44;8.40;99.90
17385;DHT22;8810;48.680;8.894;2023-03-14T15:18:15;8.30;99.90
17385;DHT22;8810;48.680;8.894;2023-03-14T15:20:42;8.30;99.90
17385;DHT22;8810;48.680;8.894;2023-03-14T15:23:10;8.30;99.90
17385;DHT22;8810;48.680;8.894;2023-03-14T15:25:38;8.30;99.90
17385;DHT22;8810;48.680;8.894;2023-03-14T15:28:14;8.20;99.90
17385;DHT22;8810;48.680;8.894;2023-03-14T15:30:41;8.30;99.90
17385;DHT22;8810;48.680;8.894;2023-03-14T15:33:08;8.20;99.90
17385;DHT22;8810;48.680;8.894;2023-03-14T15:35:37;8.30;99.90
17385;DHT22;8810;48.680;8.894;2023-03-14T15:38:04;8.30;99.90
17385;DHT22;8810;48.680;8.894;2023-03-14T15:40:31;8.20;99.90
17385;DHT22;8810;48.680;8.894;2023-03-14T15:42:58;8.20;99.90
17385;DHT22;8810;48.680;8.894;2023-03-14T15:45:25;8.20;99.90
17385;DHT22;8810;48.680;8.894;2023-03-14T15:47:52;8.30;99.90
17385;DHT22;8810;48.680;8.894;2023-03-14T15:50:18;8.30;99.90
17385;DHT22;8810;48.680;8.894;2023-03-14T15:52:47;8.30;99.90
17385;DHT22;8810;48.680;8.894;2023-03-14T15:55:14;8.30;99.90
17385;DHT22;8810;48.680;8.894;2023-03-14T15:57:42;8.20;99.90
17385;DHT22;8810;48.680;8.894;2023-03-14T16:00:11;8.30;99.90
17385;DHT22;8810;48.680;8.894;2023-03-14T16:02:39;8.20;99.90
17385;DHT22;8810;48.680;8.894;2023-03-14T16:05:07;8.30;99.90
17385;DHT22;8810;48.680;8.894;2023-03-14T16:07:35;8.20;99.90
17385;DHT22;8810;48.680;8.894;2023-03-14T16:10:04;8.30;99.90
17385;DHT22;8810;48.680;8.894;2023-03-14T16:12:32;8.30;99.90
17385;DHT22;8810;48.680;8.894;2023-03-14T16:14:59;8.40;99.90
17385;DHT22;8810;48.680;8.894;2023-03-14T16:17:26;8.40;99.90
17385;DHT22;8810;48.680;8.894;2023-03-14T16:19:53;8.30;99.90